createdAt,value
2023-03-22T00:00:15.363Z,99094.28
2023-03-22T00:02:45.456Z,99093.47
2023-03-22T00:05:14.120Z,99089.56
2023-03-22T00:07:43.548Z,99085.97
2023-03-22T00:10:12.431Z,99088.72
2023-03-22T00:12:40.848Z,99093.16
2023-03-22T00:15:11.266Z,99088.13
2023-03-22T00:17:39.697Z,99092.50
2023-03-22T00:20:12.919Z,99093.66
2023-03-22T00:22:41.556Z,99084.50
2023-03-22T00:25:11.040Z,99080.91
2023-03-22T00:27:39.631Z,99076.50
2023-03-22T00:30:10.750Z,99078.78
2023-03-22T00:32:40.087Z,99084.63
2023-03-22T00:35:12.178Z,99075.31
2023-03-22T00:37:40.709Z,99068.75
2023-03-22T00:40:13.047Z,99073.28
2023-03-22T00:42:43.094Z,99077.50
2023-03-22T00:45:14.924Z,99078.44
2023-03-22T00:47:43.546Z,99064.88
2023-03-22T00:50:13.765Z,99069.41
2023-03-22T00:52:42.190Z,99063.66
2023-03-22T00:55:10.931Z,99058.72
2023-03-22T00:57:39.387Z,99056.88
2023-03-22T01:00:13.731Z,99051.94
2023-03-22T01:02:43.040Z,99057.81
2023-03-22T01:05:16.072Z,99056.16
2023-03-22T01:07:44.888Z,99056.16
2023-03-22T01:10:14.119Z,99049.00
2023-03-22T01:12:42.539Z,99050.09
2023-03-22T01:15:12.466Z,99054.03
2023-03-22T01:17:40.881Z,99048.78
2023-03-22T01:20:13.079Z,99051.88
2023-03-22T01:22:41.672Z,99053.81
2023-03-22T01:25:11.335Z,99039.44
2023-03-22T01:27:39.814Z,99045.81
2023-03-22T01:30:11.652Z,99040.56
2023-03-22T01:32:40.850Z,99040.56
2023-03-22T01:35:10.532Z,99035.03
2023-03-22T01:37:40.608Z,99029.47
2023-03-22T01:40:11.739Z,99033.91
2023-03-22T01:42:40.335Z,99030.00
2023-03-22T01:45:41.868Z,99026.69
2023-03-22T01:48:21.216Z,99034.41
2023-03-22T01:51:02.988Z,99033.28
2023-03-22T01:53:38.154Z,99025.47
2023-03-22T01:56:08.507Z,99027.94
2023-03-22T01:58:39.309Z,99024.53
2023-03-22T02:01:11.087Z,99020.09
2023-03-22T02:03:48.972Z,99019.50
2023-03-22T02:06:17.682Z,99012.50
2023-03-22T02:08:47.827Z,99015.28
2023-03-22T02:11:20.905Z,99015.28
2023-03-22T02:14:31.173Z,99014.44
2023-03-22T02:17:20.638Z,99018.06
2023-03-22T02:20:31.474Z,99021.13
2023-03-22T02:23:28.144Z,99020.00
2023-03-22T02:26:39.364Z,99013.63
2023-03-22T02:29:14.130Z,99018.88
2023-03-22T02:32:10.320Z,99019.16
2023-03-22T02:35:27.456Z,99018.66
2023-03-22T02:39:01.639Z,99008.84
2023-03-22T02:41:43.831Z,99008.50
2023-03-22T02:44:25.750Z,99008.50
2023-03-22T02:47:04.044Z,99002.13
2023-03-22T02:49:38.652Z,99010.97
2023-03-22T02:52:17.385Z,99005.41
2023-03-22T02:54:56.756Z,99006.25
2023-03-22T02:57:34.989Z,99008.72
2023-03-22T03:00:10.561Z,99017.84
2023-03-22T03:02:41.946Z,99014.78
2023-03-22T03:05:14.685Z,99013.13
2023-03-22T03:07:50.503Z,99014.78
2023-03-22T03:10:22.004Z,99015.91
2023-03-22T03:12:50.575Z,99010.84
2023-03-22T03:15:21.580Z,99020.00
2023-03-22T03:18:09.997Z,99019.69
2023-03-22T03:20:52.358Z,99013.00
2023-03-22T03:23:33.632Z,99016.78
2023-03-22T03:26:10.229Z,99022.03
2023-03-22T03:28:45.071Z,99019.78
2023-03-22T03:31:27.132Z,99025.03
2023-03-22T03:34:06.731Z,99024.41
2023-03-22T03:36:38.821Z,99024.91
2023-03-22T03:39:13.685Z,99022.44
2023-03-22T03:41:45.340Z,99023.75
2023-03-22T03:44:14.772Z,99020.69
2023-03-22T03:46:45.433Z,99018.75
2023-03-22T03:49:16.465Z,99023.47
2023-03-22T03:51:50.619Z,99018.22
2023-03-22T03:54:19.363Z,99019.03
2023-03-22T03:56:49.512Z,99017.41
2023-03-22T03:59:18.783Z,99031.56
2023-03-22T04:01:51.677Z,99029.63
2023-03-22T04:04:26.342Z,99024.41
2023-03-22T04:06:56.880Z,99019.16
2023-03-22T04:09:26.948Z,99022.25
2023-03-22T04:11:57.872Z,99024.50
2023-03-22T04:14:27.563Z,99020.06
2023-03-22T04:16:57.148Z,99024.00
2023-03-22T04:19:26.059Z,99025.09
2023-03-22T04:21:54.833Z,99017.09
2023-03-22T04:24:23.812Z,99023.78
2023-03-22T04:26:52.676Z,99025.22
2023-03-22T04:29:23.216Z,99024.72
2023-03-22T04:31:53.137Z,99031.09
2023-03-22T04:34:21.601Z,99027.50
2023-03-22T04:36:50.762Z,99034.19
2023-03-22T04:39:19.445Z,99036.13
2023-03-22T04:41:48.108Z,99034.19
2023-03-22T04:44:16.592Z,99030.91
2023-03-22T04:46:46.474Z,99029.25
2023-03-22T04:49:15.144Z,99028.44
2023-03-22T04:51:43.774Z,99030.09
2023-03-22T04:54:12.233Z,99020.44
2023-03-22T04:56:40.810Z,99026.81
2023-03-22T04:59:10.861Z,99024.03
2023-03-22T05:01:40.825Z,99030.69
2023-03-22T05:04:10.795Z,99032.66
2023-03-22T05:06:39.201Z,99031.84
2023-03-22T05:09:08.155Z,99033.78
2023-03-22T05:11:36.624Z,99036.06
2023-03-22T05:14:05.794Z,99039.44
2023-03-22T05:16:34.484Z,99031.44
2023-03-22T05:19:03.098Z,99032.06
2023-03-22T05:21:36.941Z,99037.41
2023-03-22T05:24:06.110Z,99036.88
2023-03-22T05:26:38.055Z,99036.88
2023-03-22T05:29:06.876Z,99046.03
2023-03-22T05:31:35.448Z,99052.91
2023-03-22T05:34:03.927Z,99049.53
2023-03-22T05:36:36.524Z,99054.44
2023-03-22T05:39:06.077Z,99048.59
2023-03-22T05:41:36.642Z,99055.16
2023-03-22T05:44:06.155Z,99059.25
2023-03-22T05:46:34.583Z,99060.25
2023-03-22T05:49:03.049Z,99064.03
2023-03-22T05:51:31.455Z,99060.34
2023-03-22T05:54:01.383Z,99067.72
2023-03-22T05:56:29.822Z,99065.38
2023-03-22T05:58:58.431Z,99073.56
2023-03-22T06:01:26.886Z,99078.69
2023-03-22T06:03:55.346Z,99079.06
2023-03-22T06:06:24.021Z,99075.56
2023-03-22T06:08:52.565Z,99080.34
2023-03-22T06:11:22.766Z,99076.84
2023-03-22T06:13:51.227Z,99081.00
2023-03-22T06:16:19.855Z,99089.88
2023-03-22T06:18:48.394Z,99090.94
2023-03-22T06:21:16.916Z,99094.00
2023-03-22T06:23:45.604Z,99094.19
2023-03-22T06:26:14.086Z,99082.19
2023-03-22T06:28:43.936Z,99091.06
2023-03-22T06:31:12.506Z,99085.53
2023-03-22T06:33:40.981Z,99086.38
2023-03-22T06:36:10.281Z,99089.19
2023-03-22T06:38:38.747Z,99094.78
2023-03-22T06:41:07.527Z,99091.53
2023-03-22T06:43:35.964Z,99095.00
2023-03-22T06:46:06.434Z,99100.44
2023-03-22T06:48:34.934Z,99095.22
2023-03-22T06:51:03.496Z,99090.94
2023-03-22T06:53:31.955Z,99094.22
2023-03-22T06:56:00.395Z,99091.59
2023-03-22T06:58:29.072Z,99090.28
2023-03-22T07:00:58.075Z,99089.50
2023-03-22T07:03:28.007Z,99096.72
2023-03-22T07:06:02.907Z,99095.06
2023-03-22T07:08:31.505Z,99086.38
2023-03-22T07:10:59.970Z,99085.88
2023-03-22T07:13:28.654Z,99088.19
2023-03-22T07:15:57.719Z,99081.31
2023-03-22T07:18:29.208Z,99078.06
2023-03-22T07:20:57.782Z,99081.50
2023-03-22T07:23:26.542Z,99082.47
2023-03-22T07:25:56.042Z,99085.56
2023-03-22T07:28:24.912Z,99082.28
2023-03-22T07:31:02.268Z,99083.28
2023-03-22T07:33:32.061Z,99086.56
2023-03-22T07:36:00.916Z,99086.72
2023-03-22T07:38:29.384Z,99096.22
2023-03-22T07:40:57.843Z,99097.81
2023-03-22T07:43:26.447Z,99093.34
2023-03-22T07:45:55.060Z,99083.28
2023-03-22T07:48:24.728Z,99084.31
2023-03-22T07:50:57.912Z,99080.63
2023-03-22T07:53:26.677Z,99084.13
2023-03-22T07:55:55.172Z,99071.22
2023-03-22T07:58:23.616Z,99067.91
2023-03-22T08:00:52.076Z,99070.78
2023-03-22T08:03:22.306Z,99076.63
2023-03-22T08:05:51.752Z,99076.06
2023-03-22T08:08:21.829Z,99063.16
2023-03-22T08:10:51.858Z,99073.63
2023-03-22T08:13:20.466Z,99067.81
2023-03-22T08:15:48.921Z,99063.16
2023-03-22T08:18:17.339Z,99064.44
2023-03-22T08:20:46.293Z,99072.50
2023-03-22T08:23:16.191Z,99075.53
2023-03-22T08:25:46.145Z,99076.56
2023-03-22T08:28:15.916Z,99080.06
2023-03-22T08:30:44.988Z,99079.88
2023-03-22T08:33:14.007Z,99073.69
2023-03-22T08:35:43.266Z,99067.16
2023-03-22T08:38:11.733Z,99064.94
2023-03-22T08:40:40.271Z,99067.50
2023-03-22T08:43:10.104Z,99065.50
2023-03-22T08:45:39.093Z,99070.28
2023-03-22T08:48:08.265Z,99072.75
2023-03-22T08:50:36.837Z,99066.34
2023-03-22T08:53:05.735Z,99058.41
2023-03-22T08:55:37.658Z,99057.25
2023-03-22T08:58:06.513Z,99066.78
2023-03-22T09:00:48.214Z,99075.44
2023-03-22T09:03:17.828Z,99067.63
2023-03-22T09:05:46.423Z,99069.84
2023-03-22T09:08:19.122Z,99064.22
2023-03-22T09:10:51.677Z,99063.44
2023-03-22T09:13:21.029Z,99071.72
2023-03-22T09:15:53.099Z,99054.81
2023-03-22T09:18:22.469Z,99058.06
2023-03-22T09:20:51.486Z,99050.50
2023-03-22T09:23:20.177Z,99056.56
2023-03-22T09:25:50.071Z,99055.16
2023-03-22T09:28:19.264Z,99057.00
2023-03-22T09:30:47.794Z,99041.22
2023-03-22T09:33:17.686Z,99045.78
2023-03-22T09:35:46.468Z,99043.78
2023-03-22T09:38:16.192Z,99040.53
2023-03-22T09:40:53.472Z,99043.94
2023-03-22T09:43:22.842Z,99037.00
2023-03-22T09:45:53.179Z,99034.41
2023-03-22T09:48:29.955Z,99037.09
2023-03-22T09:50:58.942Z,99038.84
2023-03-22T09:53:30.823Z,99036.13
2023-03-22T09:56:08.296Z,99036.97
2023-03-22T09:58:44.336Z,99026.91
2023-03-22T10:01:26.009Z,99023.78
2023-03-22T10:04:31.187Z,99017.44
2023-03-22T10:07:11.793Z,99021.03
2023-03-22T10:09:48.742Z,99015.81
2023-03-22T10:12:26.369Z,99001.38
2023-03-22T10:15:06.753Z,99008.06
2023-03-22T10:17:37.712Z,98994.63
2023-03-22T10:20:19.094Z,99002.78
2023-03-22T10:22:52.773Z,99000.84
2023-03-22T10:25:32.839Z,99002.28
2023-03-22T10:28:01.340Z,98997.31
2023-03-22T10:30:42.049Z,98992.63
2023-03-22T10:33:17.846Z,98993.94
2023-03-22T10:35:48.653Z,98988.88
2023-03-22T10:38:25.330Z,98985.75
2023-03-22T10:40:56.754Z,98987.44
2023-03-22T10:43:33.144Z,98980.81
2023-03-22T10:46:05.435Z,98978.59
2023-03-22T10:48:37.584Z,98981.03
2023-03-22T10:51:08.992Z,98975.72
2023-03-22T10:53:41.488Z,98977.78
2023-03-22T10:56:15.762Z,98980.75
2023-03-22T10:58:44.353Z,98972.84
2023-03-22T11:01:15.167Z,98978.66
2023-03-22T11:03:49.815Z,98975.22
2023-03-22T11:06:24.274Z,98972.94
2023-03-22T11:08:54.885Z,98972.59
2023-03-22T11:11:26.794Z,98976.81
2023-03-22T11:14:01.834Z,98971.25
2023-03-22T11:16:31.905Z,98973.22
2023-03-22T11:19:03.335Z,98973.56
2023-03-22T11:21:35.133Z,98966.59
2023-03-22T11:24:08.250Z,98965.66
2023-03-22T11:26:40.841Z,98961.72
2023-03-22T11:29:17.613Z,98958.75
2023-03-22T11:31:59.633Z,98952.72
2023-03-22T11:34:31.758Z,98946.47
2023-03-22T11:37:03.201Z,98933.75
2023-03-22T11:39:31.694Z,98934.56
2023-03-22T11:42:03.967Z,98926.16
2023-03-22T11:44:38.079Z,98920.25
2023-03-22T11:47:13.647Z,98916.06
2023-03-22T11:49:48.160Z,98914.91
2023-03-22T11:52:23.133Z,98907.94
2023-03-22T11:54:52.745Z,98910.59
2023-03-22T11:57:26.709Z,98904.44
2023-03-22T12:00:01.838Z,98905.09
2023-03-22T12:02:33.841Z,98909.38
2023-03-22T12:05:11.833Z,98914.09
2023-03-22T12:07:42.620Z,98903.28
2023-03-22T12:10:16.946Z,98903.53
2023-03-22T12:12:52.458Z,98899.53
2023-03-22T12:15:25.385Z,98887.94
2023-03-22T12:18:02.115Z,98888.31
2023-03-22T12:20:42.020Z,98899.22
2023-03-22T12:23:21.167Z,98886.56
2023-03-22T12:25:54.895Z,98889.59
2023-03-22T12:28:29.781Z,98881.63
2023-03-22T12:31:00.319Z,98885.00
2023-03-22T12:33:32.235Z,98878.28
2023-03-22T12:36:03.829Z,98880.75
2023-03-22T12:38:41.724Z,98879.59
2023-03-22T12:41:16.191Z,98876.78
2023-03-22T12:43:53.568Z,98877.41
2023-03-22T12:46:27.899Z,98877.50
2023-03-22T12:49:02.428Z,98868.16
2023-03-22T12:51:30.891Z,98867.41
2023-03-22T12:54:02.427Z,98855.50
2023-03-22T12:56:39.811Z,98862.84
2023-03-22T12:59:17.913Z,98856.44
2023-03-22T13:01:53.717Z,98856.81
2023-03-22T13:04:46.943Z,98855.22
2023-03-22T13:07:32.128Z,98846.31
2023-03-22T13:10:23.293Z,98841.19
2023-03-22T13:13:15.627Z,98839.16
2023-03-22T13:16:01.643Z,98836.63
2023-03-22T13:18:39.389Z,98831.88
2023-03-22T13:21:14.328Z,98837.97
2023-03-22T13:24:00.631Z,98840.28
2023-03-22T13:26:38.082Z,98833.16
2023-03-22T13:29:17.358Z,98828.66
2023-03-22T13:31:55.080Z,98828.25
2023-03-22T13:34:32.578Z,98829.91
2023-03-22T13:37:03.673Z,98821.41
2023-03-22T13:39:36.100Z,98826.22
2023-03-22T13:42:19.387Z,98822.56
2023-03-22T13:44:58.683Z,98823.38
2023-03-22T13:47:37.950Z,98818.84
2023-03-22T13:50:17.187Z,98810.66
2023-03-22T13:52:55.682Z,98806.50
2023-03-22T13:55:58.257Z,98799.31
2023-03-22T13:58:53.086Z,98814.03
2023-03-22T14:01:30.810Z,98806.44
2023-03-22T14:04:02.403Z,98806.13
2023-03-22T14:06:34.844Z,98798.84
2023-03-22T14:09:13.388Z,98794.38
2023-03-22T14:11:48.840Z,98802.41
2023-03-22T14:14:23.832Z,98800.75
2023-03-22T14:17:00.101Z,98795.78
2023-03-22T14:19:33.053Z,98793.66
